Allison, Illinois
Current Conditions -  °F | °C
As of 1:53 PM on Sunday 25 Jan 2015 (Local Time) from KLWV Reporting Station
Haze Haze  
Wind Chill: 41°   Ceiling: 600
Heat Index: 41°   Visibility: 1.7mi
Dew Point: 40°   Wind: 3mph
Humidity: 96%   Direction: 120°ESE
Pressure: 29.6"   Gusts: NA
Location:  38.7501°N, 87.6141°W
Report Text: KLWV 251953Z AUTO 12003KT 1 3/4SM BR BKN006 OVC010 05/04 A2960 RMK AO2 RAB07E41 SLP026 P0003 T00500044
Loading
Personal Weather Stations






























Interactive Weather Map New forecast layout! Learn more

10-Day Weather Forecast

Advertisements
Track Severe Weather on mobile